createdAt,value
2018-10-19T00:00:48.119Z,96670.06
2018-10-19T00:03:17.298Z,96669.25
2018-10-19T00:05:49.426Z,96671.12
2018-10-19T00:08:18.303Z,96667.69
2018-10-19T00:10:48.347Z,96662.32
2018-10-19T00:13:17.204Z,96658.52
2018-10-19T00:15:47.482Z,96658.77
2018-10-19T00:18:17.425Z,96660.36
2018-10-19T00:20:46.760Z,96659.83
2018-10-19T00:23:15.603Z,96657.16
2018-10-19T00:25:45.106Z,96655.81
2018-10-19T00:28:15.512Z,96657.43
2018-10-19T00:30:44.881Z,96652.34
2018-10-19T00:33:13.776Z,96649.95
2018-10-19T00:35:42.802Z,96656.90
2018-10-19T00:38:11.827Z,96650.20
2018-10-19T00:40:40.698Z,96656.68
2018-10-19T00:43:09.568Z,96657.70
2018-10-19T00:45:43.973Z,96658.77
2018-10-19T00:48:17.351Z,96655.03
2018-10-19T00:50:46.280Z,96654.28
2018-10-19T00:53:15.536Z,96644.83
2018-10-19T00:55:45.046Z,96647.27
2018-10-19T00:58:13.949Z,96646.70
2018-10-19T01:00:43.724Z,96641.34
2018-10-19T01:03:13.038Z,96636.55
2018-10-19T01:05:42.049Z,96639.47
2018-10-19T01:08:11.324Z,96642.44
2018-10-19T01:10:40.204Z,96635.98
2018-10-19T01:13:13.034Z,96635.17
2018-10-19T01:15:43.175Z,96637.32
2018-10-19T01:18:12.220Z,96641.88
2018-10-19T01:20:44.442Z,96648.27
2018-10-19T01:23:14.962Z,96644.25
2018-10-19T01:25:44.181Z,96639.72
2018-10-19T01:28:14.943Z,96646.68
2018-10-19T01:30:43.865Z,96646.95
2018-10-19T01:33:14.361Z,96644.27
2018-10-19T01:35:44.314Z,96648.83
2018-10-19T01:38:13.178Z,96648.80
2018-10-19T01:40:42.877Z,96644.22
2018-10-19T01:43:11.740Z,96647.18
2018-10-19T01:45:46.263Z,96644.78
2018-10-19T01:48:15.168Z,96646.68
2018-10-19T01:50:45.876Z,96649.05
2018-10-19T01:53:16.252Z,96643.97
2018-10-19T01:55:45.847Z,96647.71
2018-10-19T01:58:16.984Z,96637.80
2018-10-19T02:00:45.935Z,96643.66
2018-10-19T02:03:16.632Z,96647.06
2018-10-19T02:10:32.284Z,96645.38
2018-10-19T02:13:01.516Z,96652.02
2018-10-19T02:15:31.270Z,96656.84
2018-10-19T02:18:00.190Z,96661.11
2018-10-19T02:20:29.079Z,96656.28
2018-10-19T02:22:58.297Z,96662.45
2018-10-19T02:25:27.170Z,96657.87
2018-10-19T02:27:56.102Z,96665.63
2018-10-19T02:30:26.028Z,96661.89
2018-10-19T02:32:55.256Z,96661.89
2018-10-19T02:35:24.143Z,96657.02
2018-10-19T02:37:53.574Z,96654.91
2018-10-19T02:40:22.486Z,96657.30
2018-10-19T02:42:51.397Z,96656.25
2018-10-19T02:45:20.987Z,96659.73
2018-10-19T02:47:50.172Z,96650.88
2018-10-19T02:50:19.276Z,96650.88
2018-10-19T02:52:48.183Z,96650.04
2018-10-19T02:55:17.388Z,96651.62
2018-10-19T02:57:47.364Z,96648.95
2018-10-19T03:00:16.281Z,96652.97
2018-10-19T03:02:46.357Z,96651.09
2018-10-19T03:05:15.343Z,96648.95
2018-10-19T03:07:45.703Z,96649.69
2018-10-19T03:10:15.551Z,96655.58
2018-10-19T03:12:44.472Z,96666.50
2018-10-19T03:15:13.428Z,96669.46
2018-10-19T03:17:42.549Z,96665.20
2018-10-19T03:20:12.120Z,96672.17
2018-10-19T03:22:41.632Z,96667.88
2018-10-19T03:25:10.892Z,96677.53
2018-10-19T03:27:40.259Z,96668.97
2018-10-19T03:30:09.800Z,96666.53
2018-10-19T03:32:40.111Z,96663.05
2018-10-19T03:35:09.065Z,96665.73
2018-10-19T03:37:38.927Z,96660.08
2018-10-19T03:40:08.643Z,96664.31
2018-10-19T03:42:37.492Z,96662.13
2018-10-19T03:45:08.199Z,96666.14
2018-10-19T03:47:37.163Z,96662.69
2018-10-19T03:50:07.211Z,96662.97
2018-10-19T03:52:36.168Z,96664.31
2018-10-19T03:55:05.399Z,96661.63
2018-10-19T03:57:34.354Z,96663.75
2018-10-19T04:00:04.072Z,96664.84
2018-10-19T04:02:33.367Z,96661.88
2018-10-19T04:05:03.856Z,96660.30
2018-10-19T04:07:32.680Z,96662.69
2018-10-19T04:10:02.968Z,96661.88
2018-10-19T04:12:32.766Z,96661.03
2018-10-19T04:15:01.686Z,96661.03
2018-10-19T04:17:31.288Z,96667.20
2018-10-19T04:20:01.326Z,96659.73
2018-10-19T04:22:30.977Z,96665.36
2018-10-19T04:25:01.032Z,96662.16
2018-10-19T04:27:30.377Z,96663.42
2018-10-19T04:29:59.518Z,96661.77
2018-10-19T04:32:28.960Z,96660.17
2018-10-19T04:34:59.755Z,96662.57
2018-10-19T04:37:33.127Z,96657.75
2018-10-19T04:40:03.749Z,96663.39
2018-10-19T04:42:33.441Z,96665.30
2018-10-19T04:45:02.761Z,96659.94
2018-10-19T04:47:32.195Z,96661.77
2018-10-19T04:50:01.068Z,96658.56
2018-10-19T04:52:29.903Z,96657.99
2018-10-19T04:54:59.418Z,96660.91
2018-10-19T04:57:28.330Z,96654.18
2018-10-19T04:59:58.099Z,96647.24
2018-10-19T05:02:27.468Z,96655.03
2018-10-19T05:04:57.457Z,96655.23
2018-10-19T05:07:26.443Z,96663.19
2018-10-19T05:09:55.729Z,96663.43
2018-10-19T05:12:24.627Z,96667.48
2018-10-19T05:14:55.281Z,96664.72
2018-10-19T05:17:24.295Z,96668.41
2018-10-19T05:19:55.736Z,96677.45
2018-10-19T05:22:25.335Z,96672.02
2018-10-19T05:24:56.095Z,96674.98
2018-10-19T05:27:25.885Z,96684.63
2018-10-19T05:29:57.257Z,96690.21
2018-10-19T05:32:26.098Z,96694.75
2018-10-19T05:34:55.012Z,96696.67
2018-10-19T05:37:24.386Z,96697.28
2018-10-19T05:40:01.761Z,96701.30
2018-10-19T05:42:31.660Z,96704.50
2018-10-19T05:45:00.525Z,96703.41
2018-10-19T05:47:29.833Z,96703.94
2018-10-19T05:49:59.931Z,96708.19
2018-10-19T05:52:28.996Z,96706.55
2018-10-19T05:55:00.311Z,96702.25
2018-10-19T05:57:29.217Z,96708.67
2018-10-19T05:59:58.129Z,96713.02
2018-10-19T06:02:27.381Z,96715.69
2018-10-19T06:04:57.617Z,96723.77
2018-10-19T06:07:27.396Z,96720.84
2018-10-19T06:09:57.408Z,96732.08
2018-10-19T06:12:26.301Z,96727.78
2018-10-19T06:14:55.137Z,96733.09
2018-10-19T06:17:24.609Z,96737.91
2018-10-19T06:19:53.562Z,96737.06
2018-10-19T06:22:23.166Z,96740.27
2018-10-19T06:24:53.763Z,96739.20
2018-10-19T06:27:22.613Z,96745.52
2018-10-19T06:29:53.320Z,96743.17
2018-10-19T06:32:22.248Z,96749.33
2018-10-19T06:34:52.449Z,96745.89
2018-10-19T06:37:21.344Z,96744.51
2018-10-19T06:39:52.549Z,96743.73
2018-10-19T06:42:22.311Z,96755.50
2018-10-19T06:44:53.755Z,96756.61
2018-10-19T06:47:22.709Z,96749.10
2018-10-19T06:49:51.531Z,96760.63
2018-10-19T06:52:21.268Z,96758.37
2018-10-19T06:54:52.446Z,96761.09
2018-10-19T06:57:21.378Z,96762.19
2018-10-19T06:59:50.229Z,96766.44
2018-10-19T07:02:21.089Z,96773.90
2018-10-19T07:04:50.049Z,96773.85
2018-10-19T07:07:19.002Z,96771.22
2018-10-19T07:09:58.297Z,96781.16
2018-10-19T07:12:27.176Z,96770.17
2018-10-19T07:14:56.267Z,96776.86
2018-10-19T07:17:26.726Z,96777.38
2018-10-19T07:19:56.436Z,96776.81
2018-10-19T07:22:28.021Z,96775.47
2018-10-19T07:24:57.955Z,96782.26
2018-10-19T07:27:27.737Z,96780.88
2018-10-19T07:29:57.944Z,96781.77
2018-10-19T07:32:27.694Z,96785.61
2018-10-19T07:34:56.980Z,96792.34
2018-10-19T07:37:30.378Z,96791.05
2018-10-19T07:40:05.610Z,96796.16
2018-10-19T07:42:35.201Z,96795.66
2018-10-19T07:45:04.191Z,96801.28
2018-10-19T07:47:33.079Z,96803.14
2018-10-19T07:50:02.959Z,96804.67
2018-10-19T07:53:34.996Z,96810.25
2018-10-19T07:56:05.410Z,96814.05
2018-10-19T07:58:34.377Z,96816.31
2018-10-19T08:01:05.374Z,96810.91
2018-10-19T08:03:35.164Z,96812.06
2018-10-19T08:06:04.015Z,96816.25
2018-10-19T08:08:37.118Z,96822.59
2018-10-19T08:11:06.462Z,96827.61
2018-10-19T08:17:48.565Z,96826.45
2018-10-19T08:20:17.503Z,96834.70
2018-10-19T08:22:47.639Z,96831.80
2018-10-19T08:25:16.543Z,96828.94
2018-10-19T08:27:47.259Z,96831.39
2018-10-19T08:30:16.725Z,96835.69
2018-10-19T08:32:46.350Z,96838.13
2018-10-19T08:35:15.225Z,96840.06
2018-10-19T08:37:45.818Z,96836.84
2018-10-19T08:40:14.886Z,96841.14
2018-10-19T08:42:44.714Z,96841.09
2018-10-19T08:45:14.095Z,96844.00
2018-10-19T08:47:43.900Z,96847.78
2018-10-19T08:50:12.758Z,96848.61
2018-10-19T08:52:41.705Z,96848.42
2018-10-19T08:55:10.626Z,96845.75
2018-10-19T08:57:39.537Z,96846.03
2018-10-19T09:00:11.845Z,96846.32
2018-10-19T09:02:41.101Z,96840.23
2018-10-19T09:05:15.933Z,96843.41
2018-10-19T09:07:44.825Z,96850.98
2018-10-19T09:10:14.651Z,96845.91
2018-10-19T09:12:43.598Z,96847.61
2018-10-19T09:15:13.323Z,96852.55
2018-10-19T09:17:43.207Z,96848.19
2018-10-19T09:20:12.127Z,96851.75
2018-10-19T09:22:41.750Z,96854.70
2018-10-19T09:25:10.636Z,96860.98
2018-10-19T09:32:54.294Z,96852.44
2018-10-19T09:35:24.456Z,96848.06
2018-10-19T09:37:54.039Z,96845.73
2018-10-19T09:40:24.618Z,96838.52
2018-10-19T09:42:54.336Z,96847.75
2018-10-19T09:45:24.399Z,96843.61
2018-10-19T09:47:54.199Z,96837.21
2018-10-19T09:50:24.709Z,96842.33
2018-10-19T09:52:54.647Z,96838.48
2018-10-19T09:55:27.420Z,96842.33
2018-10-19T09:57:59.989Z,96845.05
2018-10-19T10:00:36.264Z,96838.02
2018-10-19T10:03:10.650Z,96837.31
2018-10-19T10:08:25.175Z,96838.61
2018-10-19T10:10:54.930Z,96839.27
2018-10-19T10:13:30.736Z,96832.39
2018-10-19T10:16:02.621Z,96831.28
2018-10-19T10:18:34.377Z,96837.75
2018-10-19T10:21:14.948Z,96835.96
2018-10-19T10:23:58.559Z,96837.35
2018-10-19T10:26:30.863Z,96832.60
2018-10-19T10:29:01.672Z,96829.40
2018-10-19T10:31:32.998Z,96834.72
2018-10-19T10:34:05.116Z,96841.98
2018-10-19T10:36:39.968Z,96833.66
2018-10-19T10:39:25.341Z,96837.16
2018-10-19T10:41:54.935Z,96829.88
2018-10-19T10:44:36.223Z,96828.75
2018-10-19T10:47:10.418Z,96832.77
2018-10-19T10:49:47.258Z,96832.52
2018-10-19T10:52:20.158Z,96834.92
2018-10-19T10:54:50.281Z,96841.33
2018-10-19T10:57:22.952Z,96838.94
2018-10-19T10:59:52.849Z,96834.14
2018-10-19T11:02:26.214Z,96826.92
2018-10-19T11:16:35.456Z,96828.46
2018-10-19T11:19:05.509Z,96820.70
2018-10-19T11:21:35.219Z,96826.67
2018-10-19T11:24:07.309Z,96817.58
2018-10-19T11:26:39.695Z,96820.02
2018-10-19T11:29:09.503Z,96816.89
2018-10-19T11:31:38.991Z,96821.16
2018-10-19T11:34:09.831Z,96815.77
2018-10-19T11:36:42.406Z,96827.01
2018-10-19T11:39:15.096Z,96825.18
2018-10-19T11:41:45.347Z,96815.60
2018-10-19T11:44:18.444Z,96817.95
2018-10-19T11:46:53.830Z,96822.26
2018-10-19T11:49:27.437Z,96815.11
2018-10-19T11:52:00.879Z,96811.17
2018-10-19T11:54:45.417Z,96812.48
2018-10-19T11:57:16.100Z,96809.83
2018-10-19T11:59:48.348Z,96804.18
2018-10-19T12:02:19.045Z,96804.14
2018-10-19T12:04:48.188Z,96799.59
2018-10-19T12:07:17.055Z,96801.02
2018-10-19T12:09:46.974Z,96795.62
2018-10-19T12:12:16.811Z,96794.03
2018-10-19T12:14:46.395Z,96791.67
2018-10-19T12:17:18.311Z,96790.61
2018-10-19T12:19:50.692Z,96784.23
2018-10-19T12:22:24.954Z,96783.52
2018-10-19T12:24:55.876Z,96783.41
2018-10-19T12:27:24.766Z,96784.48
2018-10-19T12:30:02.240Z,96782.08
2018-10-19T12:32:32.284Z,96782.33
2018-10-19T12:35:03.480Z,96781.47
2018-10-19T12:37:32.388Z,96780.13
2018-10-19T12:40:01.231Z,96781.16
2018-10-19T12:42:31.070Z,96774.48
2018-10-19T12:45:00.329Z,96775.83
2018-10-19T12:47:39.850Z,96782.28
2018-10-19T12:50:09.049Z,96777.98
2018-10-19T12:52:39.625Z,96776.96
2018-10-19T12:55:09.523Z,96775.09
2018-10-19T12:57:40.381Z,96774.20
2018-10-19T13:00:12.494Z,96774.95
2018-10-19T13:02:41.615Z,96776.81
2018-10-19T13:05:12.020Z,96773.31
2018-10-19T13:07:40.834Z,96773.56
2018-10-19T13:10:10.037Z,96769.83
2018-10-19T13:12:38.859Z,96769.79
2018-10-19T13:15:07.778Z,96769.58
2018-10-19T13:17:37.651Z,96760.77
2018-10-19T13:20:07.685Z,96757.84
2018-10-19T13:22:46.725Z,96753.25
2018-10-19T13:25:16.784Z,96756.78
2018-10-19T13:27:46.243Z,96751.45
2018-10-19T13:30:27.044Z,96757.62
2018-10-19T13:32:57.467Z,96756.04
2018-10-19T13:35:33.482Z,96767.30
2018-10-19T13:38:02.592Z,96758.16
2018-10-19T13:40:40.531Z,96758.44
2018-10-19T13:43:10.599Z,96757.09
2018-10-19T13:45:41.536Z,96757.09
2018-10-19T13:48:10.459Z,96752.23
2018-10-19T13:50:39.317Z,96754.06
2018-10-19T13:53:16.479Z,96756.22
2018-10-19T13:55:46.786Z,96759.14
2018-10-19T13:58:19.218Z,96753.78
2018-10-19T14:00:50.950Z,96749.16
2018-10-19T14:03:19.795Z,96751.06
2018-10-19T14:05:48.760Z,96744.89
2018-10-19T14:08:18.245Z,96742.42
2018-10-19T14:10:47.949Z,96736.46
2018-10-19T14:13:16.868Z,96737.02
2018-10-19T14:15:46.606Z,96741.08
2018-10-19T14:18:19.651Z,96736.22
2018-10-19T14:20:48.492Z,96739.67
2018-10-19T14:23:17.530Z,96739.42
2018-10-19T14:25:47.354Z,96741.08
2018-10-19T14:28:17.580Z,96739.67
2018-10-19T14:30:47.115Z,96739.98
2018-10-19T14:33:16.088Z,96744.57
2018-10-19T14:35:45.778Z,96745.34
2018-10-19T14:38:15.348Z,96741.01
2018-10-19T14:40:44.557Z,96741.25
2018-10-19T14:43:13.501Z,96734.55
2018-10-19T14:45:43.383Z,96737.19
2018-10-19T14:48:13.675Z,96737.72
2018-10-19T14:50:42.618Z,96737.48
2018-10-19T14:53:13.503Z,96742.83
2018-10-19T14:55:42.304Z,96742.83
2018-10-19T14:58:24.559Z,96746.33
2018-10-19T15:00:54.267Z,96738.50
2018-10-19T15:03:24.243Z,96744.67
2018-10-19T15:05:53.571Z,96743.33
2018-10-19T15:08:24.667Z,96740.89
2018-10-19T15:14:09.944Z,96736.59
2018-10-19T15:16:40.658Z,96734.16
2018-10-19T15:19:10.060Z,96739.80
2018-10-19T15:21:41.059Z,96737.65
2018-10-19T15:24:10.046Z,96735.70
2018-10-19T15:26:39.523Z,96740.77
2018-10-19T15:29:08.692Z,96745.64
2018-10-19T15:31:39.354Z,96750.75
2018-10-19T15:34:11.600Z,96753.64
2018-10-19T15:36:43.317Z,96745.04
2018-10-19T15:39:12.876Z,96751.45
2018-10-19T15:41:44.784Z,96755.14
2018-10-19T15:44:13.655Z,96754.89
2018-10-19T15:46:44.304Z,96758.14
2018-10-19T15:49:13.231Z,96753.06
2018-10-19T15:51:42.254Z,96743.41
2018-10-19T15:54:11.201Z,96746.30
2018-10-19T15:56:41.150Z,96752.70
2018-10-19T15:59:10.136Z,96757.00
2018-10-19T16:01:39.071Z,96752.70
2018-10-19T16:04:08.911Z,96755.09
2018-10-19T16:06:38.398Z,96753.19
2018-10-19T16:09:11.885Z,96749.17
2018-10-19T16:11:40.758Z,96760.45
2018-10-19T16:14:13.288Z,96762.27
2018-10-19T16:16:42.232Z,96763.05
2018-10-19T16:19:11.351Z,96764.38
2018-10-19T16:21:40.540Z,96757.45
2018-10-19T16:24:10.840Z,96760.65
2018-10-19T16:26:40.731Z,96755.30
2018-10-19T16:29:10.502Z,96760.94
2018-10-19T16:31:45.087Z,96765.72
2018-10-19T16:34:14.564Z,96765.97
2018-10-19T16:36:43.519Z,96763.33
2018-10-19T16:39:15.484Z,96767.34
2018-10-19T16:41:45.014Z,96767.83
2018-10-19T16:44:15.924Z,96771.32
2018-10-19T16:46:46.291Z,96764.38
2018-10-19T16:49:15.181Z,96770.50
2018-10-19T16:51:54.289Z,96771.84
2018-10-19T16:57:25.280Z,96776.91
2018-10-19T17:00:00.930Z,96773.70
2018-10-19T17:02:33.790Z,96775.86
2018-10-19T17:05:06.102Z,96772.08
2018-10-19T17:10:53.705Z,96776.09
2018-10-19T17:13:24.902Z,96777.11
2018-10-19T17:15:54.323Z,96783.56
2018-10-19T17:18:41.644Z,96783.28
2018-10-19T17:21:14.710Z,96786.95
2018-10-19T17:23:45.912Z,96788.58
2018-10-19T17:26:14.794Z,96787.24
2018-10-19T17:28:46.467Z,96789.59
2018-10-19T17:31:15.539Z,96786.86
2018-10-19T17:34:48.716Z,96790.30
2018-10-19T17:37:19.087Z,96796.48
2018-10-19T17:39:48.010Z,96793.55
2018-10-19T17:42:17.710Z,96794.56
2018-10-19T17:44:49.334Z,96792.65
2018-10-19T17:47:18.771Z,96793.17
2018-10-19T17:49:51.832Z,96793.22
2018-10-19T17:52:25.286Z,96792.16
2018-10-19T17:54:55.056Z,96788.97
2018-10-19T17:57:25.767Z,96790.83
2018-10-19T17:59:57.394Z,96793.55
2018-10-19T18:02:26.276Z,96797.01
2018-10-19T18:04:56.390Z,96791.40
2018-10-19T18:07:26.443Z,96796.22
2018-10-19T18:09:58.296Z,96792.73
2018-10-19T18:12:27.574Z,96794.89
2018-10-19T18:15:20.916Z,96791.13
2018-10-19T18:17:51.681Z,96794.89
2018-10-19T18:20:21.469Z,96796.75
2018-10-19T18:22:51.744Z,96801.53
2018-10-19T18:25:25.202Z,96803.36
2018-10-19T18:27:55.786Z,96797.23
2018-10-19T18:30:26.388Z,96802.78
2018-10-19T18:32:55.271Z,96804.41
2018-10-19T18:35:28.467Z,96798.48
2018-10-19T18:37:57.353Z,96800.11
2018-10-19T18:40:26.518Z,96804.11
2018-10-19T18:42:55.662Z,96806.21
2018-10-19T18:45:24.514Z,96808.60
2018-10-19T18:47:53.531Z,96816.68
2018-10-19T18:50:22.439Z,96820.42
2018-10-19T18:52:53.079Z,96827.09
2018-10-19T18:55:23.025Z,96821.77
2018-10-19T18:57:52.376Z,96831.13
2018-10-19T19:00:23.543Z,96834.38
2018-10-19T19:02:54.019Z,96833.81
2018-10-19T19:05:23.837Z,96842.39
2018-10-19T19:07:54.322Z,96846.60
2018-10-19T19:10:27.598Z,96850.81
2018-10-19T19:13:03.103Z,96852.14
2018-10-19T19:15:32.771Z,96852.60
2018-10-19T19:18:10.425Z,96854.80
2018-10-19T19:20:42.234Z,96854.76
2018-10-19T19:23:14.366Z,96855.23
2018-10-19T19:25:52.470Z,96859.20
2018-10-19T19:28:35.003Z,96867.27
2018-10-19T19:31:04.172Z,96867.33
2018-10-19T19:33:38.945Z,96865.12
2018-10-19T19:36:08.392Z,96869.14
2018-10-19T19:38:38.042Z,96872.39
2018-10-19T19:41:15.096Z,96871.00
2018-10-19T19:44:00.212Z,96870.19
2018-10-19T19:46:31.878Z,96873.39
2018-10-19T19:49:08.467Z,96876.06
2018-10-19T19:51:38.698Z,96879.53
2018-10-19T19:54:07.574Z,96884.08
2018-10-19T19:56:37.386Z,96883.27
2018-10-19T19:59:06.289Z,96884.37
2018-10-19T20:01:36.203Z,96884.95
2018-10-19T20:04:06.799Z,96894.48
2018-10-19T20:06:36.746Z,96888.90
2018-10-19T20:09:12.411Z,96890.84
2018-10-19T20:11:45.718Z,96895.66
2018-10-19T20:14:18.610Z,96888.97
2018-10-19T20:16:57.216Z,96888.97
2018-10-19T20:19:29.371Z,96888.50
2018-10-19T20:22:00.351Z,96892.27
2018-10-19T20:24:31.237Z,96887.97
2018-10-19T20:27:00.778Z,96887.39
2018-10-19T20:29:30.375Z,96896.52
2018-10-19T20:32:02.892Z,96896.77
2018-10-19T20:34:33.435Z,96893.03
2018-10-19T20:37:03.058Z,96893.03
2018-10-19T20:39:32.959Z,96891.41
2018-10-19T20:42:02.542Z,96895.95
2018-10-19T20:44:35.221Z,96894.90
2018-10-19T20:47:09.737Z,96896.71
2018-10-19T20:49:43.232Z,96888.39
2018-10-19T20:52:12.488Z,96896.77
2018-10-19T20:54:42.377Z,96890.08
2018-10-19T20:57:12.535Z,96889.02
2018-10-19T20:59:41.424Z,96886.34
2018-10-19T21:02:10.348Z,96882.86
2018-10-19T21:04:39.800Z,96887.97
2018-10-19T21:07:09.545Z,96890.41
2018-10-19T21:09:41.082Z,96889.09
2018-10-19T21:12:10.051Z,96886.13
2018-10-19T21:14:39.939Z,96880.94
2018-10-19T21:17:10.445Z,96891.28
2018-10-19T21:19:39.314Z,96886.94
2018-10-19T21:22:09.182Z,96884.62
2018-10-19T21:24:38.192Z,96885.20
2018-10-19T21:27:07.531Z,96883.62
2018-10-19T21:29:37.934Z,96884.95
2018-10-19T21:32:06.846Z,96884.14
2018-10-19T21:34:35.800Z,96880.42
2018-10-19T21:37:04.802Z,96881.52
2018-10-19T21:39:34.405Z,96880.18
2018-10-19T21:42:05.060Z,96876.69
2018-10-19T21:44:33.906Z,96881.42
2018-10-19T21:47:04.613Z,96879.55
2018-10-19T21:49:34.685Z,96878.74
2018-10-19T21:52:04.359Z,96878.27
2018-10-19T21:54:36.466Z,96880.06
2018-10-19T21:57:05.337Z,96874.47
2018-10-19T21:59:35.808Z,96879.55
2018-10-19T22:02:04.742Z,96882.57
2018-10-19T22:04:33.599Z,96883.14
2018-10-19T22:07:03.342Z,96885.53
2018-10-19T22:09:32.575Z,96883.62
2018-10-19T22:12:02.404Z,96883.09
2018-10-19T22:14:32.792Z,96892.63
2018-10-19T22:17:02.426Z,96891.00
2018-10-19T22:19:31.265Z,96889.95
2018-10-19T22:22:00.984Z,96887.97
2018-10-19T22:24:30.595Z,96890.42
2018-10-19T22:27:00.947Z,96888.90
2018-10-19T22:29:29.779Z,96888.63
2018-10-19T22:31:59.637Z,96886.22
2018-10-19T22:34:28.883Z,96891.58
2018-10-19T22:36:58.416Z,96885.44
2018-10-19T22:39:27.330Z,96883.02
2018-10-19T22:41:56.187Z,96882.23
2018-10-19T22:44:25.495Z,96884.36
2018-10-19T22:46:54.369Z,96883.27
2018-10-19T22:49:26.728Z,96883.27
2018-10-19T22:51:55.641Z,96883.50
2018-10-19T22:54:25.811Z,96893.20
2018-10-19T22:56:54.750Z,96885.20
2018-10-19T22:59:24.520Z,96897.81
2018-10-19T23:01:55.178Z,96893.33
2018-10-19T23:04:29.236Z,96892.56
2018-10-19T23:06:58.456Z,96897.58
2018-10-19T23:09:27.488Z,96894.27
2018-10-19T23:11:56.374Z,96892.17
2018-10-19T23:14:26.574Z,96892.17
2018-10-19T23:16:55.466Z,96892.41
2018-10-19T23:19:24.359Z,96895.90
2018-10-19T23:21:53.264Z,96895.38
2018-10-19T23:24:22.144Z,96889.20
2018-10-19T23:26:51.373Z,96884.91
2018-10-19T23:29:20.294Z,96888.63
2018-10-19T23:31:49.131Z,96891.28
2018-10-19T23:34:19.031Z,96891.98
2018-10-19T23:36:49.053Z,96891.98
2018-10-19T23:39:18.535Z,96897.11
2018-10-19T23:41:48.914Z,96897.45
2018-10-19T23:44:18.727Z,96898.55
2018-10-19T23:46:47.563Z,96896.14
2018-10-19T23:49:16.421Z,96897.22
2018-10-19T23:51:45.705Z,96902.59
2018-10-19T23:54:15.536Z,96898.58
2018-10-19T23:56:44.377Z,96897.77
2018-10-19T23:59:13.334Z,96895.88
